EDDLEHEH

Guest
Details From EDDL - Duesseldorf
To EHEH - Eindhoven
Flight Number -
Tags Generated
Created
Modified
Stats Distance 53 nm / 98 km
Max Altitude 0 ft / 0 m
Waypoints 2
Social Downloads 1
Likes 0
Share VATSIM

Download

Looking for another format? Having issues loading an existing format? Contact us
Advertisement - Login to hide

Notes

Generated

Route

EDDL EHEH

ID Type Via Altitude Latitude Longitude Leg Dist Tot Dist Heading (true) Name
O EDDL APT - 0 ft / 0 m 51.28373˚ 6.74873˚ - 0 nm - -
O EHEH APT - 0 ft / 0 m 51.43909˚ 5.36214˚ 52 nm 52 nm 281° / 280° -

Altitude Profile

Advertisement - Login to hide

EDDL

Details ICAO EDDL (DUS)
Name Duesseldorf
Region Germany - Civil
Timezone Europe/Berlin (UTC+2.0)
Stats Elevation 146 ft / 45 m (AMSL)
Location 51.289419° 6.766637°
Runways 2
Magnetic Variation 1.866° E

METAR

EDDL 231450Z 05012KT 020V080 9999 FEW040 SCT110 BKN280 23/14 Q1019 NOSIG

Decode

TAF

TAF EDDL 231100Z 2312/2418 05012KT CAVOK PROB40 TEMPO 2313/2315 SHRA BKN040CB BECMG 2319/2322 04006KT TEMPO 2413/2417 09011KT TSRA BKN030CB

Decode

Departure Runways

ID Width Length Bearing (true) Bearing (mag) Surface Threshold Offset Overrun Length
05L 148 ft / 45 m 8,895 ft / 2,711 m 52.72° 50.85° Concrete 994 ft / 303 m 906 ft / 276 m
05R 148 ft / 45 m 9,858 ft / 3,005 m 52.68° 50.81° Concrete 984 ft / 300 m 659 ft / 201 m
23L 148 ft / 45 m 9,858 ft / 3,005 m 232.71° 230.84° Concrete 984 ft / 300 m 702 ft / 214 m
23R 148 ft / 45 m 8,895 ft / 2,711 m 232.75° 230.88° Concrete 971 ft / 296 m 928 ft / 283 m

EHEH

Details ICAO EHEH (EIN)
Name Eindhoven
Region Netherlands
Timezone Europe/Amsterdam (UTC+2.0)
Stats Elevation 74 ft / 23 m (AMSL)
Location 51.450133° 5.374513°
Runways 1
Magnetic Variation 1.432° E

METAR

EHEH 231455Z AUTO 06009KT 010V090 9999 FEW043 SCT049 BKN100 24/14 Q1018 BLU 05010KT 9999 SCT045 BKN270

Decode

TAF

TAF EHEH 231106Z 2312/2418 05008KT CAVOK PROB40 TEMPO 2314/2318 VRB12G25KT 3000 SHRA TSRAGR SCT050CB SCT070 TEMPO 2409/2415 07010G20KT TEMPO 2413/2418 VRB12G25KT 3000 SHRA SCT040CB BKN050 PROB40 TEMPO 2414/2418 VRB15G30KT 1800 +SHRA TSRAGR SCT015 SCT030CB BKN040

Decode

Destination Runways

ID Width Length Bearing (true) Bearing (mag) Surface Threshold Offset Overrun Length
03 148 ft / 45 m 9,832 ft / 2,997 m 34.92° 33.49° Asphalt 821 ft / 250 m 0 ft / 0 m
21 148 ft / 45 m 9,832 ft / 2,997 m 214.94° 213.51° Asphalt 821 ft / 250 m 0 ft / 0 m

Approach Navaids

Runway Type Ident Frequency Range Bearing (true) Bearing (mag) Slope Elevation
03 Localiser EHZ 109.75 MHz 18 nm / 33 km 34.95° 33.52° - 74 ft / 23 m (AMSL)
03 Glidescope EHZ 109.75 MHz 15 nm / 28 km 34.95° 33.52° 3.00° 74 ft / 23 m (AMSL)
03 DME EHZ 109.75 MHz 18 nm / 33 km - - - 74 ft / 23 m (AMSL)
21 Localiser EHO 109.75 MHz 18 nm / 33 km 214.92° 213.49° - 74 ft / 23 m (AMSL)
21 Glidescope EHO 109.75 MHz 15 nm / 28 km 214.92° 213.49° 3.00° 74 ft / 23 m (AMSL)
21 DME EHO 109.75 MHz 18 nm / 33 km - - - 74 ft / 23 m (AMSL)